Time;durP1;ratioP1;P1;durP2;ratioP2;P2;SDS_P1;SDS_P2;PMS_P1;PMS_P2;Temp;Humidity;BMP_temperature;BMP_pressure;BME280_temperature;BME280_humidity;BME280_pressure;Samples;Min_cycle;Max_cycle;Signal;HPM_P1;HPM_P2
2022/01/28 00:00:15;;;;;;;11.40;10.30;;;5.90;99.90;;;;;;10547064;28;20226;-78
2022/01/28 00:05:21;;;;;;;11.03;10.00;;;5.90;99.90;;;;;;10551729;28;20192;-78
2022/01/28 00:10:25;;;;;;;11.30;10.10;;;5.90;99.90;;;;;;10537737;28;20726;-78
2022/01/28 00:15:32;;;;;;;10.97;9.87;;;5.90;99.90;;;;;;10543769;28;20219;-80
2022/01/28 00:36:57;;;;;;;9.23;8.40;;;6.00;99.90;;;;;;10540639;28;20241;-77
2022/01/28 00:42:00;;;;;;;10.33;9.37;;;6.10;99.90;;;;;;10540499;28;20691;-78
2022/01/28 00:47:05;;;;;;;9.70;8.80;;;6.10;99.90;;;;;;10541366;28;20278;-77
2022/01/28 00:52:09;;;;;;;9.20;8.40;;;6.20;99.90;;;;;;10542311;28;20224;-79
2022/01/28 00:57:11;;;;;;;9.57;8.67;;;6.20;99.90;;;;;;10542654;28;20220;-78
2022/01/28 01:02:13;;;;;;;8.40;7.70;;;6.20;99.90;;;;;;10542653;28;20695;-77
2022/01/28 01:07:17;;;;;;;8.00;7.33;;;6.20;99.90;;;;;;10542348;28;20716;-79
2022/01/28 01:12:21;;;;;;;8.10;7.40;;;6.20;99.90;;;;;;10541044;28;20273;-78
2022/01/28 01:17:34;;;;;;;9.37;8.13;;;6.20;99.90;;;;;;10541566;28;20223;-79
2022/01/28 01:22:39;;;;;;;8.30;7.60;;;6.20;99.90;;;;;;10539610;28;20196;-78
2022/01/28 01:27:47;;;;;;;8.33;7.53;;;6.10;99.90;;;;;;10544388;28;20191;-80
2022/01/28 01:32:52;;;;;;;8.43;7.63;;;6.10;99.90;;;;;;10545709;28;20226;-80
2022/01/28 01:37:56;;;;;;;7.60;6.90;;;6.00;99.90;;;;;;10544135;28;20223;-80
2022/01/28 01:43:05;;;;;;;9.20;8.40;;;6.00;99.90;;;;;;10549530;22;20225;-82
2022/01/28 01:53:28;;;;;;;9.30;8.40;;;5.80;99.90;;;;;;10476666;28;20262;-84
2022/01/28 01:58:35;;;;;;;8.30;7.50;;;5.80;99.90;;;;;;10477060;28;20213;-83
2022/01/28 02:03:37;;;;;;;8.67;7.97;;;5.70;99.90;;;;;;10490499;28;20599;-83
2022/01/28 02:08:40;;;;;;;8.80;8.00;;;5.70;99.90;;;;;;10483239;28;20200;-84
2022/01/28 02:13:51;;;;;;;10.50;8.23;;;5.70;99.90;;;;;;10483759;28;20228;-83
2022/01/28 02:18:55;;;;;;;8.53;7.73;;;5.70;99.90;;;;;;10502529;28;20224;-83
2022/01/28 02:24:02;;;;;;;8.43;7.67;;;5.70;99.90;;;;;;10506169;28;20231;-82
2022/01/28 02:29:09;;;;;;;8.77;7.90;;;5.70;99.90;;;;;;10485802;28;20201;-85
2022/01/28 02:34:12;;;;;;;8.57;7.73;;;5.70;99.90;;;;;;10442770;28;20221;-84
2022/01/28 02:39:15;;;;;;;8.77;8.07;;;5.60;99.90;;;;;;10452680;28;20213;-83
2022/01/28 02:44:22;;;;;;;9.23;7.80;;;5.60;99.90;;;;;;10480855;28;20243;-83
2022/01/28 02:49:27;;;;;;;9.93;7.87;;;5.60;99.90;;;;;;10498596;28;20673;-83
2022/01/28 02:54:33;;;;;;;8.40;7.20;;;5.60;99.90;;;;;;10487662;28;20323;-83
2022/01/28 02:59:35;;;;;;;9.53;8.60;;;5.60;99.90;;;;;;10480392;28;20250;-84
2022/01/28 03:05:02;;;;;;;8.37;7.57;;;5.60;99.90;;;;;;10461380;28;20842;-84
2022/01/28 03:10:29;;;;;;;8.93;8.00;;;5.60;99.90;;;;;;10492778;28;20203;-82
2022/01/28 03:15:32;;;;;;;8.10;7.30;;;5.60;99.90;;;;;;10466778;28;20216;-84
2022/01/28 03:20:39;;;;;;;7.70;7.00;;;5.60;99.90;;;;;;10476879;28;20201;-83
2022/01/28 03:25:44;;;;;;;7.37;6.70;;;5.60;99.90;;;;;;10496410;28;20639;-83
2022/01/28 03:30:46;;;;;;;9.50;8.03;;;5.60;99.90;;;;;;10476814;28;20204;-84
2022/01/28 03:35:48;;;;;;;7.70;7.00;;;5.60;99.90;;;;;;10458930;28;20221;-83
2022/01/28 03:40:55;;;;;;;8.17;7.17;;;5.60;99.90;;;;;;10483784;28;20218;-83
2022/01/28 03:45:57;;;;;;;7.90;7.20;;;5.70;99.90;;;;;;10493565;28;20303;-84
2022/01/28 03:50:59;;;;;;;9.90;8.90;;;5.70;99.90;;;;;;10475779;28;20648;-83
2022/01/28 03:56:02;;;;;;;8.37;7.53;;;5.80;99.90;;;;;;10497044;28;20232;-83
2022/01/28 04:01:11;;;;;;;9.00;8.10;;;5.80;99.90;;;;;;10496286;28;20208;-84
2022/01/28 04:11:32;;;;;;;9.10;8.20;;;5.90;99.90;;;;;;10479916;28;20865;-83
2022/01/28 04:17:19;;;;;;;10.37;8.40;;;5.90;99.90;;;;;;10467658;28;20240;-83
2022/01/28 04:21:56;;;;;;;8.70;7.77;;;6.00;99.90;;;;;;10499547;28;20664;-83
2022/01/28 04:27:00;;;;;;;8.60;7.20;;;6.00;99.90;;;;;;10488485;28;20636;-83
2022/01/28 04:32:03;;;;;;;6.90;6.30;;;5.90;99.90;;;;;;10509570;28;20544;-81
2022/01/28 04:37:14;;;;;;;7.97;7.20;;;5.90;99.90;;;;;;10487054;28;20212;-81
2022/01/28 04:42:36;;;;;;;9.93;7.43;;;5.80;99.90;;;;;;10478679;28;20875;-82
2022/01/28 04:47:45;;;;;;;7.53;6.90;;;5.80;99.90;;;;;;10479557;28;20193;-83
2022/01/28 04:58:19;;;;;;;10.17;7.43;;;5.70;99.90;;;;;;10474850;28;20205;-84
2022/01/28 05:03:38;;;;;;;9.23;8.30;;;5.70;99.90;;;;;;10479010;28;20236;-83
2022/01/28 05:30:40;;;;;;;8.93;7.97;;;5.60;99.90;;;;;;10459058;28;20540;-81
2022/01/28 05:35:44;;;;;;;8.67;7.93;;;5.60;99.90;;;;;;10481857;28;20229;-82
2022/01/28 05:40:46;;;;;;;9.57;8.67;;;5.60;99.90;;;;;;10447156;28;20212;-83
2022/01/28 05:45:50;;;;;;;8.33;7.17;;;5.50;99.90;;;;;;10490859;28;20225;-83
2022/01/28 05:50:52;;;;;;;9.83;8.83;;;5.50;99.90;;;;;;10481200;28;20226;-83
2022/01/28 05:55:54;;;;;;;10.10;9.00;;;5.50;99.90;;;;;;10487142;28;20217;-82
2022/01/28 06:00:58;;;;;;;8.87;7.97;;;5.50;99.90;;;;;;10459280;28;20234;-83
2022/01/28 06:06:00;;;;;;;9.80;8.50;;;5.50;99.90;;;;;;10476585;28;20628;-82
2022/01/28 06:11:02;;;;;;;10.63;8.50;;;5.50;99.90;;;;;;10462715;28;20204;-83
2022/01/28 06:16:06;;;;;;;10.80;9.27;;;5.50;99.90;;;;;;10453996;28;20216;-82
2022/01/28 06:21:08;;;;;;;9.30;8.37;;;5.50;99.90;;;;;;10471410;28;20209;-83
2022/01/28 06:26:10;;;;;;;10.00;8.53;;;5.50;99.90;;;;;;10480549;28;20222;-84
2022/01/28 06:31:14;;;;;;;10.20;7.90;;;5.50;99.90;;;;;;10458368;28;20243;-82
2022/01/28 06:36:16;;;;;;;9.70;8.00;;;5.50;99.90;;;;;;10508768;28;20231;-85
2022/01/28 06:41:18;;;;;;;9.67;8.77;;;5.40;99.90;;;;;;10464836;28;20211;-83
2022/01/28 06:46:21;;;;;;;11.27;9.00;;;5.40;99.90;;;;;;10505472;28;20258;-83
2022/01/28 06:51:23;;;;;;;11.10;9.93;;;5.50;99.90;;;;;;10473076;28;20295;-81
2022/01/28 06:56:25;;;;;;;12.90;10.20;;;5.50;99.90;;;;;;10472311;28;20216;-81
2022/01/28 07:01:30;;;;;;;12.03;8.77;;;5.50;99.90;;;;;;10492361;28;20193;-82
2022/01/28 07:06:32;;;;;;;13.80;9.33;;;5.50;99.90;;;;;;10481306;28;20231;-81
2022/01/28 07:11:34;;;;;;;10.00;9.00;;;5.40;99.90;;;;;;10470414;28;20201;-82
2022/01/28 07:16:38;;;;;;;14.20;9.10;;;5.40;99.90;;;;;;10469736;28;20253;-86
2022/01/28 07:21:40;;;;;;;11.70;9.23;;;5.40;99.90;;;;;;10472073;28;20292;-81
2022/01/28 07:26:42;;;;;;;11.87;8.40;;;5.40;99.90;;;;;;10489249;28;20225;-83
2022/01/28 07:31:46;;;;;;;8.67;7.80;;;5.40;99.90;;;;;;10463841;28;20205;-82
2022/01/28 07:36:48;;;;;;;10.47;9.20;;;5.40;99.90;;;;;;10475813;28;20205;-83
2022/01/28 07:41:50;;;;;;;11.73;9.30;;;5.40;99.90;;;;;;10476425;28;20213;-81
2022/01/28 07:46:54;;;;;;;10.30;8.90;;;5.40;99.90;;;;;;10497263;28;20280;-83
2022/01/28 07:51:56;;;;;;;12.43;9.43;;;5.50;99.90;;;;;;10490848;28;20564;-83
2022/01/28 07:57:00;;;;;;;10.43;9.43;;;5.60;99.90;;;;;;10462180;28;20209;-83
2022/01/28 08:02:04;;;;;;;10.50;9.23;;;5.70;99.90;;;;;;10448945;28;20234;-83
2022/01/28 08:07:06;;;;;;;10.43;9.23;;;5.80;99.90;;;;;;10464325;28;20197;-83
2022/01/28 08:12:09;;;;;;;8.60;7.77;;;5.80;99.90;;;;;;10483087;28;20246;-83
2022/01/28 08:17:13;;;;;;;9.60;8.70;;;5.90;99.90;;;;;;10501325;28;20299;-83
2022/01/28 08:22:15;;;;;;;11.27;8.40;;;6.00;99.90;;;;;;10477274;28;20225;-83
2022/01/28 08:27:17;;;;;;;8.77;7.87;;;6.10;99.90;;;;;;10469709;28;20276;-83
2022/01/28 08:32:21;;;;;;;8.50;7.33;;;6.10;99.90;;;;;;10475358;28;20251;-83
2022/01/28 08:37:23;;;;;;;7.40;6.70;;;6.20;99.90;;;;;;10447794;28;21068;-84
2022/01/28 08:42:25;;;;;;;9.23;8.00;;;6.30;99.90;;;;;;10486552;28;20235;-84
2022/01/28 08:47:28;;;;;;;11.20;7.60;;;6.40;99.90;;;;;;10484143;28;20189;-84
2022/01/28 08:52:30;;;;;;;8.00;7.30;;;6.50;99.90;;;;;;10484078;28;20216;-83
2022/01/28 08:57:33;;;;;;;8.23;7.40;;;6.50;99.90;;;;;;10471773;28;20228;-83
2022/01/28 09:02:36;;;;;;;9.20;6.33;;;6.70;99.90;;;;;;10461852;28;20267;-82
2022/01/28 09:07:38;;;;;;;6.93;6.23;;;6.70;99.90;;;;;;10455782;28;20243;-83
2022/01/28 09:12:48;;;;;;;6.80;6.10;;;6.70;99.90;;;;;;10475572;28;20220;-84
2022/01/28 09:17:52;;;;;;;7.57;6.87;;;6.80;99.90;;;;;;10458010;28;20263;-83
2022/01/28 09:22:54;;;;;;;7.20;6.17;;;6.90;99.90;;;;;;10463339;28;20213;-83
2022/01/28 09:27:56;;;;;;;8.97;6.50;;;7.00;99.90;;;;;;10443050;28;20590;-83
2022/01/28 09:33:00;;;;;;;7.90;5.50;;;7.00;99.90;;;;;;10452544;28;20665;-83
2022/01/28 09:38:04;;;;;;;8.30;6.13;;;7.10;99.90;;;;;;10465269;28;20239;-84
2022/01/28 09:43:08;;;;;;;8.67;4.80;;;7.00;99.90;;;;;;10470837;28;20234;-83
2022/01/28 09:48:12;;;;;;;8.03;5.23;;;7.10;99.90;;;;;;10472137;28;20219;-85
2022/01/28 09:53:15;;;;;;;8.10;4.80;;;7.20;99.90;;;;;;10461458;28;20217;-84
2022/01/28 09:58:17;;;;;;;5.10;4.23;;;7.30;99.90;;;;;;10454033;28;20278;-82
2022/01/28 10:03:21;;;;;;;4.80;3.90;;;7.40;99.90;;;;;;10445789;28;20312;-84
2022/01/28 10:08:25;;;;;;;4.90;4.40;;;7.50;99.90;;;;;;10476911;28;20232;-84
2022/01/28 10:13:33;;;;;;;4.33;3.70;;;7.70;99.90;;;;;;10449185;28;20221;-84
2022/01/28 10:18:46;;;;;;;6.27;2.97;;;7.80;99.90;;;;;;10470630;28;20228;-84
2022/01/28 10:24:10;;;;;;;6.80;3.47;;;7.90;99.90;;;;;;10459544;28;20251;-82
2022/01/28 10:29:14;;;;;;;5.13;2.77;;;7.90;99.90;;;;;;10454042;28;20200;-82
2022/01/28 10:34:20;;;;;;;4.23;2.77;;;8.00;99.90;;;;;;10468030;28;20299;-84
2022/01/28 10:39:24;;;;;;;3.50;3.10;;;8.10;99.90;;;;;;10469884;28;20270;-85
2022/01/28 10:44:28;;;;;;;7.83;3.70;;;8.10;99.90;;;;;;10453742;28;20229;-82
2022/01/28 10:49:34;;;;;;;5.27;3.20;;;8.10;99.90;;;;;;10470116;28;20177;-84
2022/01/28 10:54:37;;;;;;;4.47;3.20;;;7.90;99.90;;;;;;10466541;28;20264;-83
2022/01/28 10:59:41;;;;;;;5.73;3.03;;;7.90;99.90;;;;;;10463602;28;20221;-84
2022/01/28 11:04:47;;;;;;;6.80;3.00;;;7.90;99.90;;;;;;10465205;28;20267;-83
2022/01/28 11:09:50;;;;;;;4.57;2.90;;;8.00;99.90;;;;;;10462168;28;20265;-83
2022/01/28 11:14:53;;;;;;;10.50;3.17;;;8.10;99.90;;;;;;10476138;28;20244;-83
2022/01/28 11:19:57;;;;;;;3.67;3.00;;;8.20;99.90;;;;;;10494121;28;20221;-83
2022/01/28 11:25:26;;;;;;;3.40;2.50;;;8.20;99.90;;;;;;10501375;28;20216;-83
2022/01/28 11:30:29;;;;;;;5.67;3.23;;;8.20;99.90;;;;;;10481590;28;20193;-85
2022/01/28 11:35:38;;;;;;;6.23;2.80;;;8.10;99.90;;;;;;10481757;28;20279;-84
2022/01/28 11:40:44;;;;;;;3.03;2.60;;;8.00;99.90;;;;;;10486577;28;20593;-84
2022/01/28 11:46:04;;;;;;;10.17;3.23;;;8.00;99.90;;;;;;10487727;28;20235;-82
2022/01/28 11:51:16;;;;;;;6.53;2.80;;;8.10;99.90;;;;;;10471147;28;20219;-83
2022/01/28 11:56:18;;;;;;;6.10;3.13;;;8.20;99.90;;;;;;10478159;28;20221;-82
2022/01/28 12:01:24;;;;;;;7.00;3.50;;;8.30;99.90;;;;;;10477215;28;20227;-83
2022/01/28 12:06:28;;;;;;;5.30;3.13;;;8.40;99.90;;;;;;10454857;28;20768;-84
2022/01/28 12:11:43;;;;;;;6.70;3.10;;;8.40;99.90;;;;;;10447825;28;20204;-83
2022/01/28 12:16:47;;;;;;;4.20;2.50;;;8.30;99.90;;;;;;10465016;28;20628;-83
2022/01/28 12:22:09;;;;;;;3.30;3.00;;;8.00;99.90;;;;;;10474173;28;20284;-84
2022/01/28 12:27:13;;;;;;;6.57;3.40;;;7.80;99.90;;;;;;10480468;28;20201;-82
2022/01/28 12:32:21;;;;;;;4.87;3.10;;;7.70;99.90;;;;;;10492042;28;20225;-83
2022/01/28 12:37:28;;;;;;;4.20;3.40;;;7.60;99.90;;;;;;10478531;28;20248;-84
2022/01/28 12:42:33;;;;;;;4.40;3.00;;;7.60;99.90;;;;;;10462468;28;20275;-83
2022/01/28 12:47:36;;;;;;;4.17;3.63;;;7.70;99.90;;;;;;10476435;28;20231;-83
2022/01/28 12:52:40;;;;;;;5.90;3.97;;;7.70;99.90;;;;;;10481820;28;20312;-82
2022/01/28 12:57:43;;;;;;;6.83;4.50;;;7.80;99.90;;;;;;10505026;28;20316;-83
2022/01/28 13:02:50;;;;;;;5.57;4.57;;;7.90;99.90;;;;;;10485967;28;20238;-82
2022/01/28 13:13:18;;;;;;;6.07;5.40;;;8.00;99.90;;;;;;10457174;28;20710;-83
2022/01/28 13:18:20;;;;;;;10.33;4.77;;;8.10;99.90;;;;;;10489782;28;20992;-83
2022/01/28 13:23:32;;;;;;;8.30;4.87;;;8.10;99.90;;;;;;10503647;28;20239;-82
2022/01/28 13:28:34;;;;;;;6.03;4.37;;;8.10;99.90;;;;;;10484181;28;20210;-82
2022/01/28 13:33:36;;;;;;;8.60;5.97;;;8.20;99.90;;;;;;10456424;28;20307;-83
2022/01/28 13:38:40;;;;;;;7.23;6.40;;;8.10;99.90;;;;;;10460606;28;20673;-83
2022/01/28 13:43:42;;;;;;;12.57;6.40;;;8.10;99.90;;;;;;10490462;22;20251;-78
2022/01/28 13:48:48;;;;;;;8.70;6.30;;;8.00;99.90;;;;;;10468459;28;20251;-79
2022/01/28 13:54:18;;;;;;;8.00;6.93;;;7.90;99.90;;;;;;10469228;28;20335;-79
2022/01/28 13:59:25;;;;;;;5.83;4.87;;;7.90;99.90;;;;;;10441174;28;20585;-79
2022/01/28 14:04:32;;;;;;;7.37;6.67;;;7.80;99.90;;;;;;10442362;28;20240;-77
2022/01/28 14:09:45;;;;;;;10.93;7.50;;;7.80;99.90;;;;;;10438116;28;20197;-80
2022/01/28 14:14:48;;;;;;;12.60;7.60;;;7.70;99.90;;;;;;10454213;28;20220;-80
2022/01/28 14:19:51;;;;;;;14.00;6.83;;;7.70;99.90;;;;;;10453158;28;20216;-80
2022/01/28 14:24:55;;;;;;;11.60;7.73;;;7.70;99.90;;;;;;10435960;28;20573;-80
2022/01/28 14:30:03;;;;;;;7.40;6.63;;;7.70;99.90;;;;;;10440146;28;20221;-77
2022/01/28 14:35:06;;;;;;;8.07;6.33;;;7.70;99.90;;;;;;10430157;28;20209;-78
2022/01/28 14:40:12;;;;;;;9.53;6.80;;;7.70;99.90;;;;;;10441258;28;20216;-80
2022/01/28 14:45:17;;;;;;;9.50;6.43;;;7.70;99.90;;;;;;10442078;28;20717;-80
2022/01/28 14:50:19;;;;;;;8.10;6.10;;;7.70;99.90;;;;;;10444291;28;20225;-78
2022/01/28 14:55:23;;;;;;;7.67;6.33;;;7.70;99.90;;;;;;10455573;28;20358;-79
2022/01/28 15:00:25;;;;;;;7.90;6.77;;;7.70;99.90;;;;;;10446518;28;20308;-78
2022/01/28 15:05:28;;;;;;;18.57;7.30;;;7.70;99.90;;;;;;10464109;28;20304;-79
2022/01/28 15:10:32;;;;;;;8.03;6.27;;;7.60;99.90;;;;;;10452070;28;20215;-80
2022/01/28 15:15:34;;;;;;;7.37;6.17;;;7.60;99.90;;;;;;10460502;28;20308;-80
2022/01/28 15:20:38;;;;;;;7.63;6.30;;;7.60;99.90;;;;;;10460752;28;20229;-80
2022/01/28 15:25:41;;;;;;;6.33;5.63;;;7.50;99.90;;;;;;10441721;28;20235;-79
2022/01/28 15:36:03;;;;;;;8.30;5.40;;;7.40;99.90;;;;;;10436748;28;20236;-77
2022/01/28 15:41:10;;;;;;;8.67;6.17;;;7.40;99.90;;;;;;10444582;28;20222;-80
2022/01/28 15:46:12;;;;;;;6.90;5.90;;;7.30;99.90;;;;;;10419651;28;20265;-78
2022/01/28 15:51:14;;;;;;;7.17;5.77;;;7.30;99.90;;;;;;10419680;28;20194;-78
2022/01/28 15:56:18;;;;;;;6.70;5.60;;;7.30;99.90;;;;;;10427604;28;20304;-79
2022/01/28 16:01:22;;;;;;;7.03;5.83;;;7.30;99.90;;;;;;10444251;28;20224;-78
2022/01/28 16:06:25;;;;;;;6.57;5.47;;;7.20;99.90;;;;;;10456633;28;20221;-79
2022/01/28 16:11:32;;;;;;;7.40;6.30;;;7.20;99.90;;;;;;10454545;28;20244;-79
2022/01/28 16:21:55;;;;;;;9.30;6.73;;;7.20;99.90;;;;;;10457885;28;20320;-79
2022/01/28 16:26:59;;;;;;;12.07;7.10;;;7.10;99.90;;;;;;10453277;28;20224;-79
2022/01/28 16:32:02;;;;;;;11.13;7.87;;;7.10;99.90;;;;;;10454450;28;20194;-79
2022/01/28 16:37:05;;;;;;;7.23;6.40;;;7.10;99.90;;;;;;10447539;28;20221;-80
2022/01/28 16:42:12;;;;;;;10.20;8.83;;;7.10;99.90;;;;;;10436713;28;20221;-78
2022/01/28 16:47:14;;;;;;;8.10;7.10;;;7.10;99.90;;;;;;10427961;28;20248;-78
2022/01/28 16:52:18;;;;;;;8.77;7.10;;;7.10;99.90;;;;;;10449648;28;20276;-79
2022/01/28 16:57:21;;;;;;;7.60;6.90;;;7.10;99.90;;;;;;10446119;28;20284;-79
2022/01/28 17:02:23;;;;;;;11.40;8.00;;;7.10;99.90;;;;;;10443527;28;20595;-79
2022/01/28 17:07:26;;;;;;;9.13;7.90;;;7.10;99.90;;;;;;10446705;28;20617;-78
2022/01/28 17:12:35;;;;;;;8.40;7.33;;;7.00;99.90;;;;;;10433430;28;20206;-78
2022/01/28 17:17:38;;;;;;;8.37;6.97;;;7.00;99.90;;;;;;10427335;28;20236;-81
2022/01/28 17:22:45;;;;;;;8.30;7.50;;;7.00;99.90;;;;;;10439965;28;20278;-79
2022/01/28 17:27:52;;;;;;;11.43;7.60;;;7.00;99.90;;;;;;10444672;28;20289;-80
2022/01/28 17:32:56;;;;;;;10.07;8.30;;;7.00;99.90;;;;;;10440188;28;20217;-79
2022/01/28 17:37:58;;;;;;;9.13;8.00;;;7.00;99.90;;;;;;10441955;28;20193;-80
2022/01/28 17:43:02;;;;;;;9.03;8.00;;;7.00;99.90;;;;;;10430336;28;20259;-79
2022/01/28 17:48:05;;;;;;;11.87;8.33;;;7.00;99.90;;;;;;10443003;28;20193;-79
2022/01/28 17:53:10;;;;;;;9.80;8.80;;;7.00;99.90;;;;;;10441226;28;20243;-78
2022/01/28 17:58:14;;;;;;;10.27;8.03;;;7.00;99.90;;;;;;10437758;28;20730;-82
2022/01/28 18:03:17;;;;;;;10.03;8.30;;;7.00;99.90;;;;;;10447676;28;20214;-82
2022/01/28 18:08:19;;;;;;;11.23;8.10;;;7.00;99.90;;;;;;10454371;28;20570;-77
2022/01/28 18:13:22;;;;;;;10.17;8.97;;;7.00;99.90;;;;;;10432034;28;20312;-77
2022/01/28 18:18:25;;;;;;;11.50;8.80;;;6.90;99.90;;;;;;10418799;28;20240;-78
2022/01/28 18:23:28;;;;;;;12.87;9.67;;;6.90;99.90;;;;;;10448611;28;20701;-79
2022/01/28 18:28:34;;;;;;;11.73;8.93;;;6.90;99.90;;;;;;10453124;28;20200;-78
2022/01/28 18:33:40;;;;;;;10.80;8.70;;;6.90;99.90;;;;;;10415380;28;20697;-80
2022/01/28 18:38:48;;;;;;;13.27;9.97;;;6.80;99.90;;;;;;10447593;28;20259;-78
2022/01/28 18:43:54;;;;;;;9.63;8.73;;;6.80;99.90;;;;;;10436240;28;20240;-78
2022/01/28 18:48:56;;;;;;;11.10;9.17;;;6.80;99.90;;;;;;10445133;28;20538;-81
2022/01/28 18:53:58;;;;;;;11.17;9.93;;;6.70;99.90;;;;;;10447415;28;20213;-81
2022/01/28 18:59:02;;;;;;;12.27;9.10;;;6.70;99.90;;;;;;10463634;28;20224;-79
2022/01/28 19:04:04;;;;;;;10.47;9.20;;;6.70;99.90;;;;;;10446008;28;20222;-80
2022/01/28 19:09:07;;;;;;;10.70;9.60;;;6.70;99.90;;;;;;10462306;28;20205;-80
2022/01/28 19:14:10;;;;;;;12.97;9.70;;;6.70;99.90;;;;;;10443878;28;20235;-77
2022/01/28 19:19:13;;;;;;;13.90;10.37;;;6.70;99.90;;;;;;10419394;28;20579;-78
2022/01/28 19:24:18;;;;;;;11.40;10.23;;;6.60;99.90;;;;;;10426770;28;20222;-80
2022/01/28 19:29:21;;;;;;;12.77;9.70;;;6.60;99.90;;;;;;10422210;28;20198;-80
2022/01/28 19:34:23;;;;;;;12.30;9.57;;;6.60;99.90;;;;;;10430528;28;20236;-78
2022/01/28 19:39:26;;;;;;;12.13;10.83;;;6.60;99.90;;;;;;10441153;28;20244;-81
2022/01/28 19:44:29;;;;;;;12.13;9.50;;;6.60;99.90;;;;;;10432069;28;20261;-77
2022/01/28 19:49:31;;;;;;;10.80;9.70;;;6.60;99.90;;;;;;10447892;28;20197;-79
2022/01/28 19:54:33;;;;;;;11.73;9.17;;;6.60;99.90;;;;;;10439371;28;20572;-80
2022/01/28 19:59:37;;;;;;;12.10;9.67;;;6.50;99.90;;;;;;10443094;28;20209;-82
2022/01/28 20:04:39;;;;;;;11.93;10.37;;;6.40;99.90;;;;;;10457091;28;20251;-83
2022/01/28 20:09:41;;;;;;;11.07;8.90;;;6.40;99.90;;;;;;10427271;28;20206;-82
2022/01/28 20:14:50;;;;;;;14.40;10.00;;;6.40;99.90;;;;;;10460296;28;20224;-80
2022/01/28 20:19:52;;;;;;;9.87;8.67;;;6.40;99.90;;;;;;10447424;28;20225;-80
2022/01/28 20:24:54;;;;;;;9.60;8.47;;;6.40;99.90;;;;;;10454882;28;20213;-80
2022/01/28 20:29:57;;;;;;;11.43;9.60;;;6.40;99.90;;;;;;10460963;28;20225;-80
2022/01/28 20:35:00;;;;;;;12.80;10.20;;;6.40;99.90;;;;;;10441409;28;20225;-79
2022/01/28 20:40:02;;;;;;;10.63;9.20;;;6.40;99.90;;;;;;10427966;28;20632;-80
2022/01/28 20:45:06;;;;;;;10.37;9.33;;;6.40;99.90;;;;;;10435616;28;20669;-80
2022/01/28 20:50:09;;;;;;;13.53;10.20;;;6.30;99.90;;;;;;10460045;28;20260;-79
2022/01/28 20:55:12;;;;;;;10.87;9.77;;;6.30;99.90;;;;;;10460128;28;20667;-81
2022/01/28 21:00:18;;;;;;;9.13;8.13;;;6.20;99.90;;;;;;10436899;28;20227;-78
2022/01/28 21:05:20;;;;;;;9.83;8.53;;;6.20;99.90;;;;;;10429221;28;20275;-80
2022/01/28 21:10:23;;;;;;;8.33;7.47;;;6.30;99.90;;;;;;10439052;28;20269;-79
2022/01/28 21:15:27;;;;;;;8.30;7.50;;;6.20;99.90;;;;;;10430139;28;20268;-79
2022/01/28 21:20:29;;;;;;;12.47;9.20;;;6.20;99.90;;;;;;10453567;28;20221;-82
2022/01/28 21:25:31;;;;;;;10.10;9.10;;;6.20;99.90;;;;;;10451465;28;20234;-78
2022/01/28 21:30:36;;;;;;;10.10;9.07;;;6.30;99.90;;;;;;10439972;28;20253;-77
2022/01/28 21:35:38;;;;;;;10.40;9.23;;;6.20;99.90;;;;;;10433255;28;20628;-80
2022/01/28 21:40:40;;;;;;;11.37;10.03;;;6.20;99.90;;;;;;10452456;28;20635;-78
2022/01/28 21:45:44;;;;;;;10.60;9.50;;;6.00;99.90;;;;;;10420374;28;20233;-77
2022/01/28 21:50:46;;;;;;;10.47;9.50;;;6.00;99.90;;;;;;10449421;28;20202;-79
2022/01/28 21:55:50;;;;;;;11.60;10.40;;;6.00;99.90;;;;;;10454641;28;20292;-81
2022/01/28 22:00:54;;;;;;;14.77;9.40;;;6.00;99.90;;;;;;10451336;28;20217;-81
2022/01/28 22:05:57;;;;;;;10.33;9.27;;;6.00;99.90;;;;;;10452056;28;20224;-80
2022/01/28 22:10:59;;;;;;;11.23;10.13;;;6.00;99.90;;;;;;10461806;28;20288;-81
2022/01/28 22:16:04;;;;;;;12.43;9.00;;;6.10;99.90;;;;;;10433984;28;20383;-81
2022/01/28 22:21:07;;;;;;;11.50;9.73;;;6.00;99.90;;;;;;10451739;28;20286;-81
2022/01/28 22:26:09;;;;;;;11.20;9.47;;;5.90;99.90;;;;;;10428055;28;20742;-80
2022/01/28 22:31:13;;;;;;;11.33;10.10;;;5.90;99.90;;;;;;10433544;28;20198;-78
2022/01/28 22:36:16;;;;;;;10.40;8.70;;;5.80;99.90;;;;;;10444801;28;20274;-79
2022/01/28 22:41:18;;;;;;;10.50;9.50;;;5.80;99.90;;;;;;10459878;28;20213;-80
2022/01/28 22:46:22;;;;;;;9.90;8.93;;;5.70;99.90;;;;;;10457871;28;20232;-79
2022/01/28 22:51:24;;;;;;;10.57;9.47;;;5.70;99.90;;;;;;10428085;28;20201;-78
2022/01/28 22:56:29;;;;;;;9.37;8.47;;;5.80;99.90;;;;;;10425516;28;20253;-79
2022/01/28 23:01:32;;;;;;;9.10;8.20;;;5.80;99.90;;;;;;10420967;28;20217;-78
2022/01/28 23:06:39;;;;;;;8.67;7.60;;;5.80;99.90;;;;;;10438055;28;20280;-79
2022/01/28 23:11:43;;;;;;;10.47;8.20;;;5.80;99.90;;;;;;10429164;28;20278;-79
2022/01/28 23:16:46;;;;;;;8.77;7.97;;;5.80;99.90;;;;;;10441408;28;20289;-79
2022/01/28 23:21:48;;;;;;;8.63;7.73;;;5.80;99.90;;;;;;10431821;28;20221;-79
2022/01/28 23:26:57;;;;;;;10.40;7.50;;;5.80;99.90;;;;;;10456728;28;20634;-78
2022/01/28 23:32:01;;;;;;;9.50;7.63;;;5.80;99.90;;;;;;10455494;28;20254;-79
2022/01/28 23:37:03;;;;;;;8.93;8.10;;;5.80;99.90;;;;;;10428442;28;20777;-79
2022/01/28 23:42:05;;;;;;;10.10;9.20;;;5.80;99.90;;;;;;10467848;28;20296;-80
2022/01/28 23:47:09;;;;;;;10.70;9.07;;;5.80;99.90;;;;;;10449713;28;20251;-79
2022/01/28 23:52:11;;;;;;;11.00;10.00;;;5.80;99.90;;;;;;10435531;28;20257;-79
2022/01/28 23:57:13;;;;;;;13.27;10.80;;;5.80;99.90;;;;;;10465779;28;20228;-79
